createdAt,value
2017-11-21T00:00:01.666Z,1002.49
2017-11-21T00:00:38.241Z,1002.50
2017-11-21T00:01:13.646Z,1002.53
2017-11-21T00:01:49.014Z,1002.50
2017-11-21T00:02:24.123Z,1002.47
2017-11-21T00:02:59.385Z,1002.43
2017-11-21T00:03:34.587Z,1002.44
2017-11-21T00:04:09.961Z,1002.45
2017-11-21T00:04:45.502Z,1002.46
2017-11-21T00:05:20.480Z,1002.45
2017-11-21T00:05:55.886Z,1002.46
2017-11-21T00:06:31.050Z,1002.52
2017-11-21T00:07:06.259Z,1002.48
2017-11-21T00:07:41.725Z,1002.53
2017-11-21T00:08:17.232Z,1002.57
2017-11-21T00:08:52.402Z,1002.54
2017-11-21T00:09:27.630Z,1002.57
2017-11-21T00:10:02.800Z,1002.56
2017-11-21T00:10:38.006Z,1002.57
2017-11-21T00:11:13.475Z,1002.55
2017-11-21T00:11:48.772Z,1002.58
2017-11-21T00:12:24.145Z,1002.60
2017-11-21T00:12:59.845Z,1002.55
2017-11-21T00:13:34.916Z,1002.55
2017-11-21T00:14:10.324Z,1002.57
2017-11-21T00:14:45.621Z,1002.57
2017-11-21T00:15:21.026Z,1002.58
2017-11-21T00:15:56.497Z,1002.56
2017-11-21T00:16:31.793Z,1002.55
2017-11-21T00:17:06.968Z,1002.54
2017-11-21T00:17:42.169Z,1002.57
2017-11-21T00:18:17.153Z,1002.57
2017-11-21T00:18:52.558Z,1002.62
2017-11-21T00:19:27.727Z,1002.58
2017-11-21T00:20:03.252Z,1002.57
2017-11-21T00:20:39.523Z,1002.54
2017-11-21T00:21:15.121Z,1002.57
2017-11-21T00:21:50.505Z,1002.57
2017-11-21T00:22:26.094Z,1002.56
2017-11-21T00:23:01.366Z,1002.54
2017-11-21T00:23:36.562Z,1002.52
2017-11-21T00:24:11.930Z,1002.55
2017-11-21T00:24:47.249Z,1002.54
2017-11-21T00:25:22.615Z,1002.55
2017-11-21T00:25:59.740Z,1002.56
2017-11-21T00:26:35.012Z,1002.52
2017-11-21T00:27:10.206Z,1002.54
2017-11-21T00:27:45.271Z,1002.56
2017-11-21T00:28:20.374Z,1002.57
2017-11-21T00:28:55.743Z,1002.55
2017-11-21T00:29:31.435Z,1002.58
2017-11-21T00:30:06.631Z,1002.59
2017-11-21T00:30:42.129Z,1002.56
2017-11-21T00:31:17.397Z,1002.60
2017-11-21T00:31:52.690Z,1002.56
2017-11-21T00:32:27.963Z,1002.57
2017-11-21T00:33:03.556Z,1002.54
2017-11-21T00:33:39.128Z,1002.54
2017-11-21T00:34:14.132Z,1002.52
2017-11-21T00:34:49.727Z,1002.52
2017-11-21T00:35:25.125Z,1002.53
2017-11-21T00:36:00.394Z,1002.54
2017-11-21T00:36:35.799Z,1002.52
2017-11-21T00:37:10.869Z,1002.49
2017-11-21T00:37:46.168Z,1002.52
2017-11-21T00:38:21.438Z,1002.59
2017-11-21T00:38:57.031Z,1002.63
2017-11-21T00:39:32.409Z,1002.57
2017-11-21T00:40:07.936Z,1002.61
2017-11-21T00:40:43.302Z,1002.60
2017-11-21T00:41:19.003Z,1002.62
2017-11-21T00:41:54.174Z,1002.58
2017-11-21T00:42:29.576Z,1002.62
2017-11-21T00:43:04.744Z,1002.63
2017-11-21T00:43:39.950Z,1002.65
2017-11-21T00:44:15.115Z,1002.68
2017-11-21T00:44:50.553Z,1002.65
2017-11-21T00:45:25.726Z,1002.68
2017-11-21T00:46:01.128Z,1002.68
2017-11-21T00:46:36.603Z,1002.70
2017-11-21T00:47:11.891Z,1002.72
2017-11-21T00:47:47.259Z,1002.71
2017-11-21T00:48:22.654Z,1002.70
2017-11-21T00:48:57.722Z,1002.75
2017-11-21T00:49:32.920Z,1002.73
2017-11-21T00:50:08.114Z,1002.75
2017-11-21T00:50:43.719Z,1002.76
2017-11-21T00:51:19.193Z,1002.76
2017-11-21T00:51:54.397Z,1002.78
2017-11-21T00:52:29.761Z,1002.78
2017-11-21T00:53:04.861Z,1002.73
2017-11-21T00:53:40.254Z,1002.79
2017-11-21T00:54:15.354Z,1002.80
2017-11-21T00:54:50.524Z,1002.84
2017-11-21T00:55:25.447Z,1002.83
2017-11-21T00:56:00.620Z,1002.90
2017-11-21T00:56:35.916Z,1002.89
2017-11-21T00:57:11.087Z,1002.87
2017-11-21T00:57:46.387Z,1002.88
2017-11-21T00:58:21.566Z,1002.88
2017-11-21T00:58:57.058Z,1002.90
2017-11-21T00:59:32.121Z,1002.91
2017-11-21T01:00:07.846Z,1002.89
2017-11-21T01:00:43.219Z,1002.87
2017-11-21T01:01:18.617Z,1002.89
2017-11-21T01:01:53.990Z,1002.92
2017-11-21T01:02:29.091Z,1002.87
2017-11-21T01:03:04.460Z,1002.95
2017-11-21T01:03:39.965Z,1002.94
2017-11-21T01:04:15.439Z,1002.97
2017-11-21T01:04:50.636Z,1002.93
2017-11-21T01:05:25.830Z,1002.94
2017-11-21T01:06:01.326Z,1002.92
2017-11-21T01:06:36.604Z,1002.93
2017-11-21T01:07:11.808Z,1002.94
2017-11-21T01:07:46.874Z,1002.92
2017-11-21T01:08:22.097Z,1002.95
2017-11-21T01:08:57.268Z,1003.01
2017-11-21T01:09:32.562Z,1003.01
2017-11-21T01:10:07.637Z,1003.01
2017-11-21T01:10:44.258Z,1002.95
2017-11-21T01:11:19.536Z,1002.98
2017-11-21T01:11:54.833Z,1002.99
2017-11-21T01:12:30.002Z,1003.05
2017-11-21T01:13:05.300Z,1003.01
2017-11-21T01:13:40.522Z,1003.02
2017-11-21T01:14:15.625Z,1003.05
2017-11-21T01:14:50.895Z,1003.10
2017-11-21T01:15:25.922Z,1003.05
2017-11-21T01:16:01.093Z,1003.10
2017-11-21T01:16:36.496Z,1003.12
2017-11-21T01:17:11.469Z,1003.06
2017-11-21T01:17:46.567Z,1003.08
2017-11-21T01:18:22.139Z,1003.00
2017-11-21T01:18:57.340Z,1003.02
2017-11-21T01:19:32.912Z,1003.01
2017-11-21T01:20:08.208Z,1003.01
2017-11-21T01:20:44.308Z,1002.99
2017-11-21T01:21:19.810Z,1003.02
2017-11-21T01:21:54.885Z,1003.05
2017-11-21T01:22:30.184Z,1003.04
2017-11-21T01:23:05.352Z,1003.05
2017-11-21T01:23:40.759Z,1003.03
2017-11-21T01:24:16.028Z,1002.98
2017-11-21T01:24:51.530Z,1003.04
2017-11-21T01:25:26.825Z,1003.01
2017-11-21T01:26:02.040Z,1003.01
2017-11-21T01:26:37.811Z,1003.06
2017-11-21T01:27:13.027Z,1003.06
2017-11-21T01:27:48.381Z,1003.08
2017-11-21T01:28:24.177Z,1003.08
2017-11-21T01:28:59.357Z,1003.09
2017-11-21T01:29:34.653Z,1003.12
2017-11-21T01:30:09.940Z,1003.10
2017-11-21T01:30:45.152Z,1003.06
2017-11-21T01:31:20.749Z,1003.08
2017-11-21T01:31:56.157Z,1003.15
2017-11-21T01:32:31.529Z,1003.11
2017-11-21T01:33:06.928Z,1003.15
2017-11-21T01:33:42.500Z,1003.14
2017-11-21T01:34:18.002Z,1003.12
2017-11-21T01:34:53.686Z,1003.14
2017-11-21T01:35:28.913Z,1003.13
2017-11-21T01:36:04.287Z,1003.10
2017-11-21T01:36:39.892Z,1003.19
2017-11-21T01:37:15.288Z,1003.13
2017-11-21T01:37:50.715Z,1003.17
2017-11-21T01:38:25.911Z,1003.18
2017-11-21T01:39:01.443Z,1003.17
2017-11-21T01:39:36.736Z,1003.13
2017-11-21T01:40:12.088Z,1003.13
2017-11-21T01:40:47.385Z,1003.14
2017-11-21T01:41:22.812Z,1003.15
2017-11-21T01:41:58.106Z,1003.14
2017-11-21T01:42:33.430Z,1003.13
2017-11-21T01:43:08.821Z,1003.14
2017-11-21T01:43:44.249Z,1003.17
2017-11-21T01:44:19.852Z,1003.15
2017-11-21T01:44:55.169Z,1003.17
2017-11-21T01:45:30.465Z,1003.17
2017-11-21T01:46:05.708Z,1003.17
2017-11-21T01:46:40.899Z,1003.15
2017-11-21T01:47:16.321Z,1003.16
2017-11-21T01:47:52.224Z,1003.16
2017-11-21T01:48:27.546Z,1003.15
2017-11-21T01:49:02.941Z,1003.18
2017-11-21T01:49:38.161Z,1003.21
2017-11-21T01:50:13.447Z,1003.15
2017-11-21T01:50:48.791Z,1003.19
2017-11-21T01:51:24.090Z,1003.19
2017-11-21T01:51:59.307Z,1003.14
2017-11-21T01:52:34.507Z,1003.18
2017-11-21T01:53:09.829Z,1003.18
2017-11-21T01:53:45.127Z,1003.17
2017-11-21T01:54:20.346Z,1003.17
2017-11-21T01:54:55.742Z,1003.20
2017-11-21T01:55:30.977Z,1003.17
2017-11-21T01:56:06.092Z,1003.16
2017-11-21T01:56:41.323Z,1003.18
2017-11-21T01:57:16.721Z,1003.18
2017-11-21T01:57:52.053Z,1003.20
2017-11-21T01:58:27.446Z,1003.20
2017-11-21T01:59:02.766Z,1003.15
2017-11-21T01:59:38.161Z,1003.17
2017-11-21T02:00:13.732Z,1003.16
2017-11-21T02:00:52.000Z,1003.17
2017-11-21T02:01:27.321Z,1003.15
2017-11-21T02:02:02.714Z,1003.16
2017-11-21T02:02:38.037Z,1003.16
2017-11-21T02:03:13.327Z,1003.13
2017-11-21T02:03:48.555Z,1003.13
2017-11-21T02:04:23.950Z,1003.18
2017-11-21T02:04:59.171Z,1003.15
2017-11-21T02:05:34.663Z,1003.15
2017-11-21T02:06:10.007Z,1003.16
2017-11-21T02:06:45.101Z,1003.16
2017-11-21T02:07:20.435Z,1003.22
2017-11-21T02:07:55.753Z,1003.21
2017-11-21T02:08:31.169Z,1003.18
2017-11-21T02:09:06.264Z,1003.18
2017-11-21T02:09:41.591Z,1003.23
2017-11-21T02:10:16.993Z,1003.17
2017-11-21T02:10:53.542Z,1003.18
2017-11-21T02:11:28.641Z,1003.20
2017-11-21T02:12:04.059Z,1003.21
2017-11-21T02:12:39.455Z,1003.20
2017-11-21T02:13:14.684Z,1003.21
2017-11-21T02:13:49.779Z,1003.19
2017-11-21T02:14:25.106Z,1003.15
2017-11-21T02:15:00.495Z,1003.15
2017-11-21T02:15:35.921Z,1003.10
2017-11-21T02:16:11.238Z,1003.16
2017-11-21T02:16:46.461Z,1003.15
2017-11-21T02:17:22.158Z,1003.15
2017-11-21T02:17:57.462Z,1003.17
2017-11-21T02:18:33.033Z,1003.12
2017-11-21T02:19:08.434Z,1003.16
2017-11-21T02:19:43.606Z,1003.10
2017-11-21T02:20:18.906Z,1003.18
2017-11-21T02:20:54.282Z,1003.15
2017-11-21T02:21:29.630Z,1003.11
2017-11-21T02:22:04.900Z,1003.13
2017-11-21T02:22:40.911Z,1003.09
2017-11-21T02:23:16.078Z,1003.06
2017-11-21T02:23:51.277Z,1003.07
2017-11-21T02:24:26.864Z,1003.07
2017-11-21T02:25:02.176Z,1003.05
2017-11-21T02:25:37.663Z,1003.07
2017-11-21T02:26:13.407Z,1003.06
2017-11-21T02:26:50.492Z,1003.08
2017-11-21T02:27:25.803Z,1003.09
2017-11-21T02:28:01.385Z,1003.06
2017-11-21T02:28:36.521Z,1003.12
2017-11-21T02:29:11.816Z,1003.11
2017-11-21T02:29:47.392Z,1003.07
2017-11-21T02:30:22.926Z,1003.04
2017-11-21T02:30:59.342Z,1003.08
2017-11-21T02:31:34.642Z,1003.09
2017-11-21T02:32:09.961Z,1003.10
2017-11-21T02:32:45.137Z,1003.11
2017-11-21T02:33:20.145Z,1003.12
2017-11-21T02:33:55.422Z,1003.10
2017-11-21T02:34:30.719Z,1003.11
2017-11-21T02:35:05.791Z,1003.13
2017-11-21T02:35:41.097Z,1003.14
2017-11-21T02:36:16.383Z,1003.11
2017-11-21T02:36:51.877Z,1003.12
2017-11-21T02:37:27.050Z,1003.10
2017-11-21T02:38:02.166Z,1003.12
2017-11-21T02:38:37.332Z,1003.13
2017-11-21T02:39:12.434Z,1003.13
2017-11-21T02:39:48.305Z,1003.12
2017-11-21T02:40:23.599Z,1003.10
2017-11-21T02:40:58.975Z,1003.08
2017-11-21T02:41:34.404Z,1003.06
2017-11-21T02:42:09.784Z,1003.07
2017-11-21T02:42:44.984Z,1003.10
2017-11-21T02:43:20.364Z,1003.12
2017-11-21T02:43:56.161Z,1003.12
2017-11-21T02:44:31.535Z,1003.13
2017-11-21T02:45:08.007Z,1003.11
2017-11-21T02:45:44.808Z,1003.11
2017-11-21T02:46:20.234Z,1003.11
2017-11-21T02:46:55.600Z,1003.11
2017-11-21T02:47:30.808Z,1003.07
2017-11-21T02:48:06.383Z,1003.09
2017-11-21T02:48:41.783Z,1003.04
2017-11-21T02:49:16.856Z,1003.08
2017-11-21T02:49:52.157Z,1003.06
2017-11-21T02:50:27.327Z,1003.13
2017-11-21T02:51:02.524Z,1003.09
2017-11-21T02:51:37.619Z,1003.12
2017-11-21T02:52:13.023Z,1003.10
2017-11-21T02:52:48.593Z,1003.17
2017-11-21T02:53:23.798Z,1003.15
2017-11-21T02:53:59.367Z,1003.10
2017-11-21T02:54:34.571Z,1003.12
2017-11-21T02:55:09.644Z,1003.14
2017-11-21T02:55:45.342Z,1003.10
2017-11-21T02:56:20.608Z,1003.09
2017-11-21T02:56:56.435Z,1003.09
2017-11-21T02:57:31.905Z,1003.08
2017-11-21T02:58:07.100Z,1003.08
2017-11-21T02:58:42.683Z,1003.10
2017-11-21T02:59:18.090Z,1003.11
2017-11-21T02:59:53.563Z,1003.12
2017-11-21T03:00:28.888Z,1003.13
2017-11-21T03:01:04.252Z,1003.16
2017-11-21T03:01:39.477Z,1003.16
2017-11-21T03:02:14.649Z,1003.11
2017-11-21T03:02:49.953Z,1003.14
2017-11-21T03:03:25.327Z,1003.15
2017-11-21T03:04:00.735Z,1003.15
2017-11-21T03:04:36.001Z,1003.16
2017-11-21T03:05:11.402Z,1003.11
2017-11-21T03:05:46.581Z,1003.15
2017-11-21T03:06:21.786Z,1003.14
2017-11-21T03:06:57.080Z,1003.13
2017-11-21T03:07:32.672Z,1003.12
2017-11-21T03:08:07.653Z,1003.14
2017-11-21T03:08:43.253Z,1003.12
2017-11-21T03:09:18.427Z,1003.13
2017-11-21T03:09:53.824Z,1003.14
2017-11-21T03:10:28.998Z,1003.17
2017-11-21T03:11:04.406Z,1003.18
2017-11-21T03:11:39.596Z,1003.12
2017-11-21T03:12:14.903Z,1003.15
2017-11-21T03:12:50.275Z,1003.16
2017-11-21T03:13:25.481Z,1003.13
2017-11-21T03:14:00.751Z,1003.15
2017-11-21T03:14:36.059Z,1003.17
2017-11-21T03:15:11.432Z,1003.13
2017-11-21T03:15:46.624Z,1003.20
2017-11-21T03:16:22.198Z,1003.17
2017-11-21T03:16:57.615Z,1003.23
2017-11-21T03:17:32.883Z,1003.23
2017-11-21T03:18:08.088Z,1003.28
2017-11-21T03:18:43.958Z,1003.25
2017-11-21T03:19:19.390Z,1003.24
2017-11-21T03:19:54.656Z,1003.24
2017-11-21T03:20:29.865Z,1003.24
2017-11-21T03:21:05.460Z,1003.25
2017-11-21T03:21:40.433Z,1003.25
2017-11-21T03:22:15.629Z,1003.22
2017-11-21T03:22:51.734Z,1003.28
2017-11-21T03:23:27.008Z,1003.22
2017-11-21T03:24:02.403Z,1003.25
2017-11-21T03:24:37.881Z,1003.22
2017-11-21T03:25:12.978Z,1003.23
2017-11-21T03:25:49.952Z,1003.18
2017-11-21T03:26:25.152Z,1003.22
2017-11-21T03:27:00.458Z,1003.21
2017-11-21T03:27:35.553Z,1003.20
2017-11-21T03:28:10.919Z,1003.22
2017-11-21T03:28:46.216Z,1003.22
2017-11-21T03:29:21.387Z,1003.20
2017-11-21T03:29:56.686Z,1003.21
2017-11-21T03:30:31.954Z,1003.20
2017-11-21T03:31:07.553Z,1003.20
2017-11-21T03:31:42.820Z,1003.21
2017-11-21T03:32:18.204Z,1003.21
2017-11-21T03:32:53.678Z,1003.22
2017-11-21T03:33:29.089Z,1003.24
2017-11-21T03:34:04.966Z,1003.25
2017-11-21T03:34:40.261Z,1003.25
2017-11-21T03:35:15.734Z,1003.28
2017-11-21T03:35:50.934Z,1003.23
2017-11-21T03:36:26.703Z,1003.23
2017-11-21T03:37:02.030Z,1003.22
2017-11-21T03:37:37.197Z,1003.21
2017-11-21T03:38:12.520Z,1003.21
2017-11-21T03:38:47.906Z,1003.22
2017-11-21T03:39:23.339Z,1003.26
2017-11-21T03:39:58.317Z,1003.24
2017-11-21T03:40:33.913Z,1003.27
2017-11-21T03:41:10.787Z,1003.25
2017-11-21T03:41:46.181Z,1003.26
2017-11-21T03:42:21.879Z,1003.23
2017-11-21T03:42:57.178Z,1003.23
2017-11-21T03:43:32.546Z,1003.25
2017-11-21T03:44:07.659Z,1003.26
2017-11-21T03:44:42.941Z,1003.24
2017-11-21T03:45:18.232Z,1003.26
2017-11-21T03:45:53.698Z,1003.25
2017-11-21T03:46:28.899Z,1003.24
2017-11-21T03:47:04.093Z,1003.27
2017-11-21T03:47:39.598Z,1003.25
2017-11-21T03:48:15.074Z,1003.28
2017-11-21T03:48:50.391Z,1003.27
2017-11-21T03:49:25.467Z,1003.29
2017-11-21T03:50:00.761Z,1003.31
2017-11-21T03:50:36.336Z,1003.33
2017-11-21T03:51:11.636Z,1003.29
2017-11-21T03:51:47.210Z,1003.28
2017-11-21T03:52:22.545Z,1003.30
2017-11-21T03:52:58.213Z,1003.30
2017-11-21T03:53:33.517Z,1003.29
2017-11-21T03:54:08.990Z,1003.31
2017-11-21T03:54:44.694Z,1003.33
2017-11-21T03:55:20.162Z,1003.33
2017-11-21T03:55:55.665Z,1003.30
2017-11-21T03:56:31.061Z,1003.33
2017-11-21T03:57:06.357Z,1003.33
2017-11-21T03:57:41.962Z,1003.34
2017-11-21T03:58:17.263Z,1003.33
2017-11-21T03:58:52.634Z,1003.35
2017-11-21T03:59:28.031Z,1003.34
2017-11-21T04:00:03.408Z,1003.34
2017-11-21T04:00:39.311Z,1003.34
2017-11-21T04:01:14.689Z,1003.36
2017-11-21T04:01:50.088Z,1003.38
2017-11-21T04:02:25.382Z,1003.38
2017-11-21T04:03:00.890Z,1003.37
2017-11-21T04:03:36.258Z,1003.37
2017-11-21T04:04:11.360Z,1003.36
2017-11-21T04:04:46.641Z,1003.36
2017-11-21T04:05:22.241Z,1003.34
2017-11-21T04:05:57.411Z,1003.39
2017-11-21T04:06:33.108Z,1003.40
2017-11-21T04:07:08.080Z,1003.40
2017-11-21T04:07:43.602Z,1003.39
2017-11-21T04:08:19.180Z,1003.37
2017-11-21T04:08:54.281Z,1003.38
2017-11-21T04:09:29.449Z,1003.39
2017-11-21T04:10:04.850Z,1003.41
2017-11-21T04:10:39.921Z,1003.40
2017-11-21T04:11:15.218Z,1003.41
2017-11-21T04:11:50.386Z,1003.42
2017-11-21T04:12:25.609Z,1003.45
2017-11-21T04:13:01.283Z,1003.45
2017-11-21T04:13:36.549Z,1003.43
2017-11-21T04:14:11.661Z,1003.43
2017-11-21T04:14:46.964Z,1003.44
2017-11-21T04:15:21.839Z,1003.42
2017-11-21T04:15:56.836Z,1003.40
2017-11-21T04:16:32.107Z,1003.42
2017-11-21T04:17:07.409Z,1003.45
2017-11-21T04:17:42.920Z,1003.45
2017-11-21T04:18:19.326Z,1003.43
2017-11-21T04:18:54.502Z,1003.40
2017-11-21T04:19:29.908Z,1003.47
2017-11-21T04:20:05.098Z,1003.40
2017-11-21T04:20:40.892Z,1003.47
2017-11-21T04:21:16.174Z,1003.48
2017-11-21T04:21:51.366Z,1003.44
2017-11-21T04:22:26.766Z,1003.42
2017-11-21T04:23:02.164Z,1003.45
2017-11-21T04:23:37.631Z,1003.45
2017-11-21T04:24:12.831Z,1003.45
2017-11-21T04:24:48.003Z,1003.45
2017-11-21T04:25:23.011Z,1003.44
2017-11-21T04:25:58.280Z,1003.44
2017-11-21T04:26:33.977Z,1003.45
2017-11-21T04:27:09.442Z,1003.46
2017-11-21T04:27:44.963Z,1003.49
2017-11-21T04:28:20.537Z,1003.47
2017-11-21T04:28:56.035Z,1003.49
2017-11-21T04:29:31.310Z,1003.48
2017-11-21T04:30:06.507Z,1003.47
2017-11-21T04:30:44.384Z,1003.47
2017-11-21T04:31:19.879Z,1003.53
2017-11-21T04:31:55.253Z,1003.51
2017-11-21T04:32:30.857Z,1003.50
2017-11-21T04:33:06.260Z,1003.50
2017-11-21T04:33:41.465Z,1003.54
2017-11-21T04:34:17.036Z,1003.50
2017-11-21T04:34:52.337Z,1003.51
2017-11-21T04:35:27.504Z,1003.51
2017-11-21T04:36:03.181Z,1003.51
2017-11-21T04:36:38.351Z,1003.52
2017-11-21T04:37:13.659Z,1003.51
2017-11-21T04:37:48.856Z,1003.52
2017-11-21T04:38:24.050Z,1003.51
2017-11-21T04:38:59.028Z,1003.46
2017-11-21T04:39:34.328Z,1003.44
2017-11-21T04:40:09.606Z,1003.43
2017-11-21T04:40:44.600Z,1003.44
2017-11-21T04:41:19.865Z,1003.47
2017-11-21T04:41:55.269Z,1003.42
2017-11-21T04:42:31.035Z,1003.44
2017-11-21T04:43:06.355Z,1003.41
2017-11-21T04:43:45.824Z,1003.40
2017-11-21T04:44:21.023Z,1003.40
2017-11-21T04:44:56.094Z,1003.38
2017-11-21T04:45:31.194Z,1003.34
2017-11-21T04:46:06.470Z,1003.39
2017-11-21T04:46:41.967Z,1003.31
2017-11-21T04:47:17.240Z,1003.32
2017-11-21T04:47:52.562Z,1003.38
2017-11-21T04:48:27.950Z,1003.31
2017-11-21T04:49:03.149Z,1003.35
2017-11-21T04:49:38.430Z,1003.34
2017-11-21T04:50:13.435Z,1003.32
2017-11-21T04:50:49.001Z,1003.35
2017-11-21T04:51:24.309Z,1003.31
2017-11-21T04:51:59.475Z,1003.30
2017-11-21T04:52:34.778Z,1003.28
2017-11-21T04:53:10.196Z,1003.31
2017-11-21T04:53:45.293Z,1003.29
2017-11-21T04:54:20.566Z,1003.31
2017-11-21T04:54:55.763Z,1003.33
2017-11-21T04:55:31.140Z,1003.31
2017-11-21T04:56:06.540Z,1003.27
2017-11-21T04:56:41.604Z,1003.27
2017-11-21T04:57:16.820Z,1003.30
2017-11-21T04:57:55.198Z,1003.33
2017-11-21T04:58:30.497Z,1003.34
2017-11-21T04:59:05.860Z,1003.36
2017-11-21T04:59:41.055Z,1003.37
2017-11-21T05:00:16.367Z,1003.36
2017-11-21T05:00:51.775Z,1003.39
2017-11-21T05:01:27.042Z,1003.38
2017-11-21T05:02:02.639Z,1003.37
2017-11-21T05:02:37.623Z,1003.38
2017-11-21T05:03:12.939Z,1003.39
2017-11-21T05:03:48.217Z,1003.37
2017-11-21T05:04:23.508Z,1003.35
2017-11-21T05:04:58.884Z,1003.36
2017-11-21T05:05:34.187Z,1003.35
2017-11-21T05:06:09.762Z,1003.39
2017-11-21T05:06:45.160Z,1003.41
2017-11-21T05:07:20.332Z,1003.40
2017-11-21T05:07:55.435Z,1003.37
2017-11-21T05:08:30.721Z,1003.40
2017-11-21T05:09:06.119Z,1003.39
2017-11-21T05:09:41.494Z,1003.42
2017-11-21T05:10:16.890Z,1003.41
2017-11-21T05:10:52.264Z,1003.43
2017-11-21T05:11:27.769Z,1003.43
2017-11-21T05:12:03.145Z,1003.45
2017-11-21T05:12:38.242Z,1003.44
2017-11-21T05:13:13.441Z,1003.46
2017-11-21T05:13:48.544Z,1003.43
2017-11-21T05:14:23.724Z,1003.43
2017-11-21T05:14:59.432Z,1003.46
2017-11-21T05:15:34.930Z,1003.44
2017-11-21T05:16:09.918Z,1003.50
2017-11-21T05:16:45.294Z,1003.45
2017-11-21T05:17:20.489Z,1003.48
2017-11-21T05:17:56.068Z,1003.47
2017-11-21T05:18:31.305Z,1003.52
2017-11-21T05:19:06.480Z,1003.50
2017-11-21T05:19:41.678Z,1003.49
2017-11-21T05:20:16.657Z,1003.51
2017-11-21T05:20:52.152Z,1003.52
2017-11-21T05:21:27.324Z,1003.52
2017-11-21T05:22:02.728Z,1003.52
2017-11-21T05:22:38.003Z,1003.53
2017-11-21T05:23:13.134Z,1003.53
2017-11-21T05:23:48.508Z,1003.48
2017-11-21T05:24:23.906Z,1003.52
2017-11-21T05:24:59.484Z,1003.49
2017-11-21T05:25:34.975Z,1003.51
2017-11-21T05:26:10.245Z,1003.55
2017-11-21T05:26:45.650Z,1003.53
2017-11-21T05:27:21.025Z,1003.52
2017-11-21T05:27:56.725Z,1003.53
2017-11-21T05:28:32.127Z,1003.50
2017-11-21T05:29:07.425Z,1003.50
2017-11-21T05:29:42.810Z,1003.51
2017-11-21T05:30:18.206Z,1003.53
2017-11-21T05:30:53.477Z,1003.51
2017-11-21T05:31:29.078Z,1003.54
2017-11-21T05:32:04.067Z,1003.53
2017-11-21T05:32:39.369Z,1003.51
2017-11-21T05:33:15.573Z,1003.57
2017-11-21T05:33:50.873Z,1003.58
2017-11-21T05:34:26.146Z,1003.55
2017-11-21T05:35:01.544Z,1003.58
2017-11-21T05:35:37.321Z,1003.59
2017-11-21T05:36:12.822Z,1003.53
2017-11-21T05:36:48.086Z,1003.58
2017-11-21T05:37:23.682Z,1003.57
2017-11-21T05:37:58.848Z,1003.54
2017-11-21T05:38:34.169Z,1003.60
2017-11-21T05:39:09.544Z,1003.56
2017-11-21T05:39:45.059Z,1003.55
2017-11-21T05:40:20.441Z,1003.58
2017-11-21T05:40:56.047Z,1003.56
2017-11-21T05:41:31.319Z,1003.55
2017-11-21T05:42:06.724Z,1003.53
2017-11-21T05:42:41.898Z,1003.50
2017-11-21T05:43:17.407Z,1003.52
2017-11-21T05:43:53.016Z,1003.48
2017-11-21T05:44:28.312Z,1003.49
2017-11-21T05:45:03.282Z,1003.44
2017-11-21T05:45:38.990Z,1003.46
2017-11-21T05:46:14.297Z,1003.47
2017-11-21T05:46:49.677Z,1003.48
2017-11-21T05:47:25.060Z,1003.48
2017-11-21T05:48:00.550Z,1003.44
2017-11-21T05:48:36.047Z,1003.43
2017-11-21T05:49:11.149Z,1003.46
2017-11-21T05:49:46.416Z,1003.46
2017-11-21T05:50:21.811Z,1003.46
2017-11-21T05:50:56.981Z,1003.46
2017-11-21T05:51:32.179Z,1003.44
2017-11-21T05:52:07.460Z,1003.47
2017-11-21T05:52:42.659Z,1003.47
2017-11-21T05:53:18.035Z,1003.48
2017-11-21T05:53:53.364Z,1003.51
2017-11-21T05:54:29.041Z,1003.49
2017-11-21T05:55:04.244Z,1003.52
2017-11-21T05:55:39.515Z,1003.49
2017-11-21T05:56:15.132Z,1003.49
2017-11-21T05:56:50.414Z,1003.53
2017-11-21T05:57:25.720Z,1003.51
2017-11-21T05:58:01.289Z,1003.53
2017-11-21T05:58:36.315Z,1003.51
2017-11-21T05:59:11.784Z,1003.47
2017-11-21T05:59:47.331Z,1003.50
2017-11-21T06:00:22.421Z,1003.45
2017-11-21T06:00:57.519Z,1003.47
2017-11-21T06:01:32.793Z,1003.48
2017-11-21T06:02:07.882Z,1003.49
2017-11-21T06:02:43.255Z,1003.50
2017-11-21T06:03:18.453Z,1003.48
2017-11-21T06:03:53.966Z,1003.53
2017-11-21T06:04:29.266Z,1003.56
2017-11-21T06:05:04.434Z,1003.53
2017-11-21T06:05:40.038Z,1003.52
2017-11-21T06:06:15.206Z,1003.53
2017-11-21T06:06:50.509Z,1003.51
2017-11-21T06:07:25.880Z,1003.53
2017-11-21T06:08:01.280Z,1003.53
2017-11-21T06:08:36.670Z,1003.54
2017-11-21T06:09:12.095Z,1003.53
2017-11-21T06:09:47.463Z,1003.51
2017-11-21T06:10:22.663Z,1003.52
2017-11-21T06:10:58.136Z,1003.49
2017-11-21T06:11:33.345Z,1003.52
2017-11-21T06:12:08.634Z,1003.47
2017-11-21T06:12:43.941Z,1003.49
2017-11-21T06:13:19.115Z,1003.48
2017-11-21T06:13:54.672Z,1003.48
2017-11-21T06:14:29.923Z,1003.48
2017-11-21T06:15:05.124Z,1003.49
2017-11-21T06:15:40.705Z,1003.47
2017-11-21T06:16:16.211Z,1003.50
2017-11-21T06:16:51.600Z,1003.45
2017-11-21T06:17:26.920Z,1003.46
2017-11-21T06:18:02.392Z,1003.43
2017-11-21T06:18:37.400Z,1003.47
2017-11-21T06:19:12.712Z,1003.48
2017-11-21T06:19:48.025Z,1003.49
2017-11-21T06:20:23.100Z,1003.49
2017-11-21T06:20:58.305Z,1003.54
2017-11-21T06:21:33.694Z,1003.54
2017-11-21T06:22:09.128Z,1003.57
2017-11-21T06:22:44.217Z,1003.53
2017-11-21T06:23:19.928Z,1003.55
2017-11-21T06:23:55.438Z,1003.56
2017-11-21T06:24:31.049Z,1003.56
2017-11-21T06:25:06.234Z,1003.55
2017-11-21T06:25:41.724Z,1003.52
2017-11-21T06:26:16.902Z,1003.54
2017-11-21T06:26:52.007Z,1003.51
2017-11-21T06:27:27.397Z,1003.53
2017-11-21T06:28:02.766Z,1003.51
2017-11-21T06:28:38.152Z,1003.50
2017-11-21T06:29:13.581Z,1003.44
2017-11-21T06:29:49.154Z,1003.46
2017-11-21T06:30:24.373Z,1003.49
2017-11-21T06:30:59.536Z,1003.53
2017-11-21T06:31:34.642Z,1003.50
2017-11-21T06:32:09.829Z,1003.55
2017-11-21T06:32:45.434Z,1003.57
2017-11-21T06:33:20.812Z,1003.58
2017-11-21T06:33:56.319Z,1003.57
2017-11-21T06:34:31.618Z,1003.57
2017-11-21T06:35:06.726Z,1003.54
2017-11-21T06:35:41.901Z,1003.59
2017-11-21T06:36:17.202Z,1003.60
2017-11-21T06:36:52.388Z,1003.56
2017-11-21T06:37:27.695Z,1003.53
2017-11-21T06:38:03.273Z,1003.50
2017-11-21T06:38:38.776Z,1003.49
2017-11-21T06:39:14.388Z,1003.47
2017-11-21T06:39:49.498Z,1003.47
2017-11-21T06:40:24.979Z,1003.47
2017-11-21T06:41:00.276Z,1003.48
2017-11-21T06:41:35.479Z,1003.46
2017-11-21T06:42:10.774Z,1003.46
2017-11-21T06:42:45.951Z,1003.49
2017-11-21T06:43:21.349Z,1003.50
2017-11-21T06:43:56.823Z,1003.53
2017-11-21T06:44:32.150Z,1003.54
2017-11-21T06:45:07.683Z,1003.53
2017-11-21T06:45:43.127Z,1003.55
2017-11-21T06:46:18.807Z,1003.53
2017-11-21T06:46:54.111Z,1003.56
2017-11-21T06:47:29.283Z,1003.58
2017-11-21T06:48:04.896Z,1003.62
2017-11-21T06:48:40.266Z,1003.64
2017-11-21T06:49:15.522Z,1003.63
2017-11-21T06:49:50.878Z,1003.66
2017-11-21T06:50:26.280Z,1003.68
2017-11-21T06:51:01.561Z,1003.65
2017-11-21T06:51:36.866Z,1003.67
2017-11-21T06:52:12.243Z,1003.62
2017-11-21T06:52:47.455Z,1003.67
2017-11-21T06:53:22.834Z,1003.63
2017-11-21T06:53:58.338Z,1003.65
2017-11-21T06:54:33.646Z,1003.62
2017-11-21T06:55:08.854Z,1003.67
2017-11-21T06:55:44.425Z,1003.62
2017-11-21T06:56:19.929Z,1003.63
2017-11-21T06:56:55.315Z,1003.64
2017-11-21T06:57:30.625Z,1003.61
2017-11-21T06:58:05.823Z,1003.65
2017-11-21T06:58:41.026Z,1003.69
2017-11-21T06:59:16.481Z,1003.70
2017-11-21T06:59:51.587Z,1003.68
2017-11-21T07:00:26.757Z,1003.68
2017-11-21T07:01:02.061Z,1003.68
2017-11-21T07:01:37.246Z,1003.71
2017-11-21T07:02:12.754Z,1003.70
2017-11-21T07:02:48.121Z,1003.69
2017-11-21T07:03:23.430Z,1003.69
2017-11-21T07:03:58.908Z,1003.70
2017-11-21T07:04:34.236Z,1003.73
2017-11-21T07:05:12.448Z,1003.72
2017-11-21T07:05:47.754Z,1003.72
2017-11-21T07:06:22.935Z,1003.73
2017-11-21T07:06:58.342Z,1003.70
2017-11-21T07:07:33.844Z,1003.73